Blue Creek, Ohio
Current Conditions -  °F | °C
As of 6:15 AM on Saturday 20 Dec 2014 (Local Time) from KFGX Reporting Station
Light Snow Light Snow  
Wind Chill: 27°   Ceiling: 7500
Heat Index: 27°   Visibility: 5mi
Dew Point: 24°   Wind: 3mph
Humidity: 87%   Direction: 60°ENE
Pressure: 30.27"   Gusts: NA
Location:  38.78°N, 83.33°W
Report Text: KFGX 201115Z AUTO 06003KT 5SM -SN SCT060 BKN075 OVC080 M03/M05 A3027 RMK AO2 T10271046
Loading
Personal Weather Stations






























Interactive Weather Map New forecast layout! Learn more

10-Day Weather Forecast

Advertisements
Track Severe Weather on mobile